Pregled zadnjih 96 podatkov za postajo Slovenske Konjice (37885)

Čas Temperatura 2 m (°C)  Relativna vlaga 2 m (% RH)  Padavine (mm)  Omočenost lista (U) 
3.7.2020 22:30:00 15,48 94,85 0 0
3.7.2020 22:00:00 16,17 92,89 0 0
3.7.2020 21:30:00 16,56 91,36 0 0
3.7.2020 21:00:00 17,31 89,21 0 0
3.7.2020 20:30:00 18,22 86,94 0 0
3.7.2020 20:00:00 18,85 86,13 0 0
3.7.2020 19:30:00 19,83 82,37 0 0
3.7.2020 19:00:00 21,39 75,85 0 0
3.7.2020 18:30:00 21,56 73,46 0 0
3.7.2020 18:00:00 20,76 76,65 0 0
3.7.2020 17:30:00 21,47 70,43 0 0
3.7.2020 17:00:00 21,44 71,38 0 0
3.7.2020 16:30:00 22,03 69,52 0 0
3.7.2020 16:00:00 21,27 70,96 0 0
3.7.2020 15:30:00 21,98 70,99 0 0
3.7.2020 15:00:00 22,15 71,04 0 0
3.7.2020 14:30:00 20,56 77,05 0 0
3.7.2020 14:00:00 19,93 83,03 0 0
3.7.2020 13:30:00 18,9 85,05 0 9
3.7.2020 13:00:00 18,07 88,79 0 4
3.7.2020 12:30:00 17,73 92,89 0 7
3.7.2020 12:00:00 17,31 93,7 0 9
3.7.2020 11:30:00 16,31 97,68 0 10
3.7.2020 11:00:00 15,38 99,39 0 10
3.7.2020 10:30:00 15,24 99,51 0,4 8
3.7.2020 10:00:00 15,14 99,41 1,2 4
3.7.2020 9:30:00 15,04 99,27 3 4
3.7.2020 9:00:00 15,36 99,17 1,4 7
3.7.2020 8:30:00 15,95 99,29 0,2 9
3.7.2020 8:00:00 16,68 99,32 0,4 9
3.7.2020 7:30:00 16,65 99,27 0,2 8
3.7.2020 7:00:00 16,68 99,12 0,6 9
3.7.2020 6:30:00 16,68 98,83 1,4 6
3.7.2020 6:00:00 17,09 97,68 15,2 9
3.7.2020 5:30:00 17,75 97,09 1,4 10
3.7.2020 5:00:00 17,56 97,07 0,2 10
3.7.2020 4:30:00 17,58 96,95 0 9
3.7.2020 4:00:00 17,61 96,53 0 9
3.7.2020 3:30:00 17,88 95,68 0,2 8
3.7.2020 3:00:00 17,97 96,73 1,2 7
3.7.2020 2:30:00 18,36 95,73 1,4 9
3.7.2020 2:00:00 18,83 94,21 0,2 10
3.7.2020 1:30:00 18,9 96,12 0,4 10
3.7.2020 1:00:00 19,07 94,29 1 10
3.7.2020 0:30:00 19,54 90,4 1,2 10
3.7.2020 20,22 86,28 0,4 10
2.7.2020 23:30:00 21,1 77 0 10
2.7.2020 23:00:00 22,64 65,67 0 0
2.7.2020 22:30:00 22,91 66,91 0 0
2.7.2020 22:00:00 22,44 72,84 0 0
2.7.2020 21:30:00 22,49 74,41 0 0
2.7.2020 21:00:00 22,91 72,41 0 0
2.7.2020 20:30:00 23,59 69,94 0 0
2.7.2020 20:00:00 24,57 66,13 0 0
2.7.2020 19:30:00 26,13 61,15 0 0
2.7.2020 19:00:00 28,21 52,33 0 0
2.7.2020 18:30:00 31,04 43,93 0 0
2.7.2020 18:00:00 30,21 46,89 0 0
2.7.2020 17:30:00 27,08 56,02 0 0
2.7.2020 17:00:00 27,23 54,8 0 0
2.7.2020 16:30:00 28,03 54,77 0 0
2.7.2020 16:00:00 26,81 55,92 0 0
2.7.2020 15:30:00 27,01 54,77 0 0
2.7.2020 15:00:00 27,72 53,89 0 0
2.7.2020 14:30:00 29,67 49,45 0 0
2.7.2020 14:00:00 29,5 47,4 0 0
2.7.2020 13:30:00 28,99 47,16 0 0
2.7.2020 13:00:00 28,94 49,33 0 0
2.7.2020 12:30:00 28,25 52,45 0 0
2.7.2020 12:00:00 27,77 56,9 0 0
2.7.2020 11:30:00 26,94 61,29 0 0
2.7.2020 11:00:00 27,18 57,9 0 0
2.7.2020 10:30:00 27,25 59,29 0 0
2.7.2020 10:00:00 25,81 59,19 0 0
2.7.2020 9:30:00 25,57 61,1 0 0
2.7.2020 9:00:00 24,47 63,25 0 0
2.7.2020 8:30:00 24,08 65,96 0 0
2.7.2020 8:00:00 23,05 69,87 0 0
2.7.2020 7:30:00 22,22 73,5 0 0
2.7.2020 7:00:00 21,25 74,87 0 0
2.7.2020 6:30:00 19,61 78,05 0 0
2.7.2020 6:00:00 18,97 80,05 0 0
2.7.2020 5:30:00 18,75 80,68 0 0
2.7.2020 5:00:00 18,8 80,49 0 0
2.7.2020 4:30:00 18,07 83,93 0 0
2.7.2020 4:00:00 17,97 84,74 0 0
2.7.2020 3:30:00 18,53 80,95 0 0
2.7.2020 3:00:00 18,36 82 0 0
2.7.2020 2:30:00 17,92 83,61 0 0
2.7.2020 2:00:00 17,78 84,64 0 0
2.7.2020 1:30:00 17,53 87,11 0 0
2.7.2020 1:00:00 17,46 87,89 0 0
2.7.2020 0:30:00 17,66 87,89 0 0
2.7.2020 18,1 86,45 0 0
1.7.2020 23:30:00 18,75 82,59 0 0
1.7.2020 23:00:00 19,34 81,32 0 0